AUA38 KEWR-LOWW
Flight info
| Callsign | AUA38 |
|---|---|
| Flight time | N/A |
| Altitude | 37000 |
| Route | GREKI DCT JUDDS DCT MARTN DCT WHALE/M083F370 DCT RAFIN/M083F390 DCT 45N050W 47N040W 49N030W 51N020W DCT DINIM DCT ELSOX/N0481F390 DCT AMDEP DCT LINRA DCT EVRIN DCT JETZI DCT AMFUL DCT CAWZE DCT SIRIC P2 DVR/N0485F410 UL9 KONAN UL607 KOK DCT DENOX DCT MATUG DCT GUBAX DCT BARSU DCT EKSOS DCT LULAR DCT RUDAP DCT BUDEX BUDEX2W |
| Aircraft | B772/H-SDE2E3FGHIJ5LORVWXY/LB1D1 |
Departure
| Time | 2026-05-05 10:52 |
|---|---|
| Airport | Newark Liberty International Airport (KEWR) |
Arrival
| Time | N/A |
|---|---|
| Airport | Vienna International Airport (LOWW) |
| Time | Latitude | Longitude | Altitude | Speed | Heading |
|---|---|---|---|---|---|
| 2026-05-05 10:24 | 40.69187 | -74.17328 | 26 ft | 0 kts | 275° |
| 2026-05-05 10:42 | 40.69186 | -74.17320 | 26 ft | 4 kts | 275° |
| 2026-05-05 10:43 | 40.69184 | -74.17285 | 25 ft | 4 kts | 279° |
| 2026-05-05 10:43 | 40.69178 | -74.17250 | 24 ft | 4 kts | 293° |
| 2026-05-05 10:43 | 40.69164 | -74.17221 | 23 ft | 4 kts | 322° |
| 2026-05-05 10:44 | 40.69144 | -74.17209 | 32 ft | 4 kts | 6° |
| 2026-05-05 10:44 | 40.69132 | -74.17212 | 32 ft | 0 kts | 26° |
| 2026-05-05 10:47 | 40.69186 | -74.17178 | 26 ft | 11 kts | 26° |
| 2026-05-05 10:48 | 40.69255 | -74.17135 | 26 ft | 11 kts | 26° |
| 2026-05-05 10:48 | 40.69323 | -74.17091 | 32 ft | 11 kts | 26° |
| 2026-05-05 10:48 | 40.69368 | -74.17063 | 31 ft | 11 kts | 26° |
| 2026-05-05 10:48 | 40.69437 | -74.17019 | 26 ft | 11 kts | 26° |
| 2026-05-05 10:49 | 40.69505 | -74.16976 | 26 ft | 11 kts | 26° |
| 2026-05-05 10:49 | 40.69574 | -74.16933 | 26 ft | 11 kts | 26° |
| 2026-05-05 10:49 | 40.69642 | -74.16890 | 26 ft | 11 kts | 25° |
| 2026-05-05 10:49 | 40.69726 | -74.16836 | 26 ft | 20 kts | 25° |
| 2026-05-05 10:50 | 40.69793 | -74.16729 | 30 ft | 15 kts | 67° |
| 2026-05-05 10:50 | 40.69794 | -74.16597 | 29 ft | 15 kts | 115° |
| 2026-05-05 10:50 | 40.69728 | -74.16559 | 27 ft | 10 kts | 195° |
| 2026-05-05 10:50 | 40.69662 | -74.16595 | 31 ft | 10 kts | 205° |
| 2026-05-05 10:51 | 40.69597 | -74.16636 | 27 ft | 10 kts | 206° |
| 2026-05-05 10:51 | 40.69494 | -74.16702 | 27 ft | 37 kts | 206° |
| 2026-05-05 10:51 | 40.69022 | -74.17003 | 27 ft | 112 kts | 205° |
| 2026-05-05 10:51 | 40.68121 | -74.17573 | 62 ft | 169 kts | 206° |
| 2026-05-05 10:52 | 40.67051 | -74.18250 | 759 ft | 172 kts | 207° |
| 2026-05-05 10:52 | 40.65975 | -74.18923 | 1739 ft | 167 kts | 210° |
| 2026-05-05 10:52 | 40.64941 | -74.19569 | 2752 ft | 161 kts | 211° |
| 2026-05-05 10:52 | 40.63983 | -74.20278 | 3550 ft | 159 kts | 221° |
| 2026-05-05 10:53 | 40.63099 | -74.21213 | 4175 ft | 167 kts | 226° |
| 2026-05-05 10:53 | 40.62232 | -74.22271 | 4852 ft | 171 kts | 234° |
| 2026-05-05 10:53 | 40.61770 | -74.23750 | 5036 ft | 190 kts | 272° |
| 2026-05-05 10:53 | 40.62241 | -74.25477 | 5239 ft | 218 kts | 300° |
| 2026-05-05 10:54 | 40.63341 | -74.27045 | 5479 ft | 249 kts | 320° |
| 2026-05-05 10:54 | 40.65007 | -74.27929 | 6047 ft | 273 kts | 349° |
| 2026-05-05 10:54 | 40.66929 | -74.27504 | 6703 ft | 293 kts | 24° |
| 2026-05-05 10:54 | 40.68559 | -74.25857 | 7320 ft | 299 kts | 43° |
| 2026-05-05 10:55 | 40.70050 | -74.23888 | 7853 ft | 307 kts | 41° |
| 2026-05-05 10:55 | 40.71593 | -74.21935 | 8656 ft | 308 kts | 41° |
| 2026-05-05 10:55 | 40.73159 | -74.20000 | 9465 ft | 309 kts | 40° |
| 2026-05-05 10:55 | 40.74750 | -74.18067 | 10175 ft | 313 kts | 40° |
| 2026-05-05 10:56 | 40.76403 | -74.16086 | 10512 ft | 332 kts | 40° |
| 2026-05-05 10:56 | 40.78174 | -74.13987 | 10697 ft | 354 kts | 40° |
| 2026-05-05 10:56 | 40.80075 | -74.11744 | 10870 ft | 378 kts | 40° |
| 2026-05-05 10:56 | 40.82077 | -74.09393 | 11340 ft | 391 kts | 40° |
| 2026-05-05 10:57 | 40.84137 | -74.06979 | 12010 ft | 399 kts | 40° |
| 2026-05-05 10:57 | 40.86223 | -74.04536 | 12801 ft | 403 kts | 40° |
| 2026-05-05 10:57 | 40.88329 | -74.02071 | 13634 ft | 407 kts | 40° |
| 2026-05-05 10:57 | 40.90460 | -73.99577 | 14307 ft | 411 kts | 40° |
| 2026-05-05 10:58 | 40.92610 | -73.97060 | 14962 ft | 416 kts | 40° |
| 2026-05-05 10:58 | 40.94790 | -73.94507 | 15570 ft | 421 kts | 40° |
| 2026-05-05 10:58 | 40.97001 | -73.91915 | 16157 ft | 427 kts | 40° |
| 2026-05-05 10:58 | 40.99232 | -73.89295 | 16747 ft | 432 kts | 40° |
| 2026-05-05 10:59 | 41.01491 | -73.86641 | 17336 ft | 436 kts | 40° |
| 2026-05-05 10:59 | 41.03745 | -73.83989 | 17906 ft | 441 kts | 41° |
| 2026-05-05 10:59 | 41.06052 | -73.81273 | 18418 ft | 447 kts | 40° |
| 2026-05-05 10:59 | 41.08384 | -73.78524 | 18928 ft | 450 kts | 40° |
| 2026-05-05 11:00 | 41.10725 | -73.75762 | 19520 ft | 451 kts | 40° |
| 2026-05-05 11:00 | 41.13070 | -73.72993 | 20125 ft | 452 kts | 40° |
| 2026-05-05 11:00 | 41.15419 | -73.70216 | 20611 ft | 455 kts | 41° |
| 2026-05-05 11:00 | 41.17789 | -73.67410 | 21103 ft | 458 kts | 41° |
| 2026-05-05 11:01 | 41.20178 | -73.64581 | 21630 ft | 461 kts | 41° |
| 2026-05-05 11:01 | 41.22565 | -73.61751 | 22174 ft | 462 kts | 41° |
| 2026-05-05 11:01 | 41.24966 | -73.58899 | 22775 ft | 463 kts | 40° |
| 2026-05-05 11:01 | 41.27370 | -73.56041 | 23259 ft | 466 kts | 41° |
| 2026-05-05 11:02 | 41.29795 | -73.53158 | 23702 ft | 468 kts | 41° |
| 2026-05-05 11:02 | 41.32229 | -73.50259 | 24100 ft | 471 kts | 41° |
| 2026-05-05 11:02 | 41.34676 | -73.47343 | 24504 ft | 473 kts | 41° |
| 2026-05-05 11:02 | 41.37132 | -73.44412 | 24906 ft | 475 kts | 41° |
| 2026-05-05 11:03 | 41.39596 | -73.41467 | 25302 ft | 477 kts | 41° |
| 2026-05-05 11:03 | 41.42076 | -73.38500 | 25698 ft | 480 kts | 41° |
| 2026-05-05 11:03 | 41.44564 | -73.35522 | 26073 ft | 482 kts | 41° |
| 2026-05-05 11:03 | 41.47063 | -73.32529 | 26442 ft | 485 kts | 41° |
| 2026-05-05 11:04 | 41.49567 | -73.29491 | 26830 ft | 487 kts | 42° |
| 2026-05-05 11:04 | 41.51978 | -73.26315 | 27204 ft | 489 kts | 44° |
| 2026-05-05 11:04 | 41.54362 | -73.23035 | 27567 ft | 492 kts | 45° |
| 2026-05-05 11:04 | 41.56756 | -73.19778 | 27920 ft | 494 kts | 44° |
| 2026-05-05 11:05 | 41.59195 | -73.16521 | 28263 ft | 494 kts | 43° |
| 2026-05-05 11:05 | 41.61797 | -73.13585 | 28340 ft | 491 kts | 30° |
| 2026-05-05 11:05 | 41.64937 | -73.11812 | 28451 ft | 491 kts | 9° |
| 2026-05-05 11:05 | 41.68317 | -73.11436 | 28755 ft | 486 kts | 353° |
| 2026-05-05 11:06 | 41.71632 | -73.12053 | 29012 ft | 479 kts | 347° |
| 2026-05-05 11:06 | 41.78304 | -73.13380 | 29322 ft | 489 kts | 349° |
| 2026-05-05 11:06 | 41.81694 | -73.13939 | 29648 ft | 490 kts | 350° |
| 2026-05-05 11:07 | 41.85082 | -73.14485 | 29984 ft | 491 kts | 350° |
| 2026-05-05 11:07 | 41.88469 | -73.15038 | 30232 ft | 492 kts | 350° |
| 2026-05-05 11:07 | 41.91867 | -73.15603 | 30521 ft | 492 kts | 350° |
| 2026-05-05 11:07 | 41.95261 | -73.16175 | 30843 ft | 490 kts | 350° |
| 2026-05-05 11:08 | 41.98642 | -73.16751 | 31198 ft | 489 kts | 349° |
| 2026-05-05 11:08 | 42.02007 | -73.17326 | 31553 ft | 487 kts | 349° |
| 2026-05-05 11:08 | 42.05364 | -73.17901 | 31897 ft | 486 kts | 349° |
| 2026-05-05 11:08 | 42.08716 | -73.18476 | 32216 ft | 485 kts | 349° |
| 2026-05-05 11:09 | 42.12069 | -73.19051 | 32531 ft | 484 kts | 349° |
| 2026-05-05 11:09 | 42.15399 | -73.19547 | 32772 ft | 480 kts | 355° |
| 2026-05-05 11:09 | 42.18747 | -73.19081 | 32765 ft | 492 kts | 14° |
| 2026-05-05 11:09 | 42.21845 | -73.17095 | 32916 ft | 501 kts | 34° |
| 2026-05-05 11:10 | 42.24373 | -73.13824 | 33205 ft | 505 kts | 51° |
| 2026-05-05 11:10 | 42.26280 | -73.09842 | 33539 ft | 505 kts | 61° |
| 2026-05-05 11:10 | 42.27730 | -73.05537 | 33846 ft | 505 kts | 71° |
| 2026-05-05 11:10 | 42.28493 | -73.00919 | 34069 ft | 502 kts | 86° |
| 2026-05-05 11:11 | 42.28567 | -72.96206 | 34108 ft | 504 kts | 91° |
| 2026-05-05 11:11 | 42.28507 | -72.91457 | 34213 ft | 507 kts | 91° |
| 2026-05-05 11:11 | 42.28444 | -72.86688 | 34448 ft | 507 kts | 91° |
| 2026-05-05 11:11 | 42.28408 | -72.81941 | 34739 ft | 506 kts | 90° |
| 2026-05-05 11:12 | 42.28404 | -72.77191 | 34993 ft | 506 kts | 90° |
| 2026-05-05 11:12 | 42.28426 | -72.72432 | 35210 ft | 506 kts | 89° |
| 2026-05-05 11:12 | 42.28464 | -72.67679 | 35424 ft | 507 kts | 89° |
| 2026-05-05 11:12 | 42.28510 | -72.62920 | 35652 ft | 507 kts | 89° |
| 2026-05-05 11:13 | 42.28558 | -72.58160 | 35872 ft | 507 kts | 89° |
| 2026-05-05 11:13 | 42.28603 | -72.53398 | 36074 ft | 508 kts | 89° |
| 2026-05-05 11:13 | 42.28646 | -72.48616 | 36187 ft | 511 kts | 89° |
| 2026-05-05 11:13 | 42.28684 | -72.43881 | 36402 ft | 510 kts | 89° |
| 2026-05-05 11:14 | 42.28719 | -72.39090 | 36650 ft | 510 kts | 89° |
| 2026-05-05 11:14 | 42.28751 | -72.34302 | 36812 ft | 511 kts | 89° |
| 2026-05-05 11:14 | 42.28781 | -72.29495 | 36858 ft | 513 kts | 89° |
| 2026-05-05 11:15 | 42.28835 | -72.19830 | 36882 ft | 515 kts | 89° |
| 2026-05-05 11:15 | 42.28881 | -72.10146 | 36890 ft | 509 kts | 89° |
| 2026-05-05 11:16 | 42.28919 | -72.00612 | 36909 ft | 507 kts | 89° |
| 2026-05-05 11:16 | 42.28949 | -71.91100 | 36907 ft | 506 kts | 89° |
| 2026-05-05 11:17 | 42.28971 | -71.81617 | 36904 ft | 505 kts | 89° |
| 2026-05-05 11:17 | 42.28985 | -71.72134 | 36910 ft | 505 kts | 89° |
| 2026-05-05 11:18 | 42.28992 | -71.62635 | 36910 ft | 506 kts | 89° |
| 2026-05-05 11:18 | 42.28990 | -71.53193 | 36884 ft | 506 kts | 89° |
| 2026-05-05 11:19 | 42.28981 | -71.43689 | 36899 ft | 506 kts | 89° |
| 2026-05-05 11:19 | 42.28963 | -71.34181 | 36929 ft | 506 kts | 89° |
| 2026-05-05 11:20 | 42.28938 | -71.24664 | 36926 ft | 507 kts | 89° |
| 2026-05-05 11:20 | 42.28905 | -71.15133 | 36927 ft | 508 kts | 89° |
| 2026-05-05 11:21 | 42.28864 | -71.05599 | 36915 ft | 508 kts | 89° |
| 2026-05-05 11:21 | 42.28815 | -70.96055 | 36917 ft | 508 kts | 90° |
| 2026-05-05 11:22 | 42.28758 | -70.86514 | 36908 ft | 508 kts | 89° |
| 2026-05-05 11:22 | 42.28694 | -70.76991 | 36917 ft | 507 kts | 90° |
| 2026-05-05 11:23 | 42.28621 | -70.67480 | 36918 ft | 506 kts | 90° |
| 2026-05-05 11:23 | 42.28541 | -70.57986 | 36924 ft | 505 kts | 90° |
| 2026-05-05 11:24 | 42.28453 | -70.48507 | 36927 ft | 504 kts | 90° |
| 2026-05-05 11:24 | 42.28358 | -70.39041 | 36928 ft | 503 kts | 90° |
| 2026-05-05 11:25 | 42.28255 | -70.29597 | 36934 ft | 503 kts | 90° |
| 2026-05-05 11:25 | 42.28144 | -70.20165 | 36938 ft | 502 kts | 90° |
| 2026-05-05 11:26 | 42.28026 | -70.10724 | 36954 ft | 503 kts | 90° |
| 2026-05-05 11:26 | 42.27900 | -70.01272 | 36961 ft | 504 kts | 90° |
| 2026-05-05 11:27 | 42.27765 | -69.91783 | 36967 ft | 505 kts | 90° |
| 2026-05-05 11:27 | 42.27622 | -69.82301 | 36958 ft | 506 kts | 90° |
| 2026-05-05 11:28 | 42.27472 | -69.72781 | 36974 ft | 507 kts | 90° |
| 2026-05-05 11:28 | 42.27313 | -69.63268 | 36976 ft | 507 kts | 90° |
| 2026-05-05 11:29 | 42.27148 | -69.53854 | 36965 ft | 507 kts | 90° |
| 2026-05-05 11:29 | 42.26972 | -69.44224 | 36978 ft | 507 kts | 90° |
| 2026-05-05 11:30 | 42.26790 | -69.34707 | 36982 ft | 507 kts | 90° |
| 2026-05-05 11:30 | 42.26599 | -69.25174 | 36992 ft | 507 kts | 90° |
| 2026-05-05 11:31 | 42.26401 | -69.15663 | 36989 ft | 507 kts | 90° |
| 2026-05-05 11:31 | 42.26229 | -69.07689 | 36998 ft | 507 kts | 90° |
| 2026-05-05 11:32 | 42.26017 | -68.98184 | 37012 ft | 507 kts | 90° |
| 2026-05-05 11:32 | 42.25796 | -68.88666 | 36995 ft | 507 kts | 90° |
| 2026-05-05 11:33 | 42.25568 | -68.79142 | 37006 ft | 507 kts | 90° |
| 2026-05-05 11:33 | 42.25332 | -68.69630 | 37011 ft | 508 kts | 90° |
| 2026-05-05 11:34 | 42.25087 | -68.60086 | 37010 ft | 508 kts | 90° |
| 2026-05-05 11:34 | 42.24835 | -68.50560 | 37011 ft | 508 kts | 91° |
| 2026-05-05 11:35 | 42.24575 | -68.41034 | 37019 ft | 508 kts | 91° |
| 2026-05-05 11:35 | 42.24307 | -68.31520 | 37027 ft | 508 kts | 91° |
| 2026-05-05 11:36 | 42.24031 | -68.21994 | 37027 ft | 508 kts | 91° |
| 2026-05-05 11:36 | 42.23747 | -68.12470 | 37035 ft | 508 kts | 91° |
| 2026-05-05 11:37 | 42.23456 | -68.02956 | 37033 ft | 508 kts | 91° |
| 2026-05-05 11:37 | 42.23157 | -67.93438 | 37034 ft | 508 kts | 91° |
| 2026-05-05 11:38 | 42.22851 | -67.83981 | 37047 ft | 508 kts | 91° |
| 2026-05-05 11:38 | 42.22534 | -67.74395 | 37041 ft | 508 kts | 91° |
| 2026-05-05 11:39 | 42.22213 | -67.64937 | 37042 ft | 508 kts | 91° |
| 2026-05-05 11:39 | 42.21882 | -67.55414 | 37044 ft | 508 kts | 91° |
| 2026-05-05 11:40 | 42.21541 | -67.45832 | 37050 ft | 508 kts | 91° |
| 2026-05-05 11:40 | 42.21194 | -67.36314 | 37052 ft | 508 kts | 91° |
| 2026-05-05 11:41 | 42.20840 | -67.26796 | 37061 ft | 508 kts | 91° |
| 2026-05-05 11:41 | 42.20478 | -67.17272 | 37059 ft | 508 kts | 91° |
| 2026-05-05 11:42 | 42.20111 | -67.07764 | 37060 ft | 508 kts | 91° |
| 2026-05-05 11:42 | 42.20562 | -66.98301 | 37064 ft | 504 kts | 77° |
| 2026-05-05 11:43 | 42.22412 | -66.89238 | 37082 ft | 500 kts | 67° |
| 2026-05-05 11:43 | 42.24735 | -66.80363 | 37069 ft | 501 kts | 68° |
| 2026-05-05 11:44 | 42.26967 | -66.71531 | 37068 ft | 502 kts | 68° |
| 2026-05-05 11:44 | 42.29203 | -66.62561 | 37072 ft | 503 kts | 69° |
| 2026-05-05 11:45 | 42.31441 | -66.53544 | 37061 ft | 503 kts | 69° |
| 2026-05-05 11:45 | 42.33662 | -66.44574 | 37072 ft | 504 kts | 69° |
| 2026-05-05 11:46 | 42.35881 | -66.35586 | 37073 ft | 504 kts | 69° |
| 2026-05-05 11:46 | 42.38091 | -66.26597 | 37071 ft | 504 kts | 69° |
| 2026-05-05 11:47 | 42.40299 | -66.17583 | 37076 ft | 505 kts | 69° |
| 2026-05-05 11:47 | 42.42501 | -66.08558 | 37084 ft | 505 kts | 69° |
| 2026-05-05 11:48 | 42.45794 | -65.94998 | 37088 ft | 506 kts | 69° |
| 2026-05-05 11:48 | 42.47981 | -65.85945 | 37081 ft | 506 kts | 69° |
| 2026-05-05 11:49 | 42.50158 | -65.76895 | 37078 ft | 506 kts | 69° |
| 2026-05-05 11:49 | 42.52331 | -65.67830 | 37085 ft | 505 kts | 69° |
| 2026-05-05 11:50 | 42.54496 | -65.58760 | 37092 ft | 506 kts | 69° |
| 2026-05-05 11:50 | 42.56586 | -65.49972 | 37089 ft | 506 kts | 69° |
| 2026-05-05 11:51 | 42.58744 | -65.40861 | 37087 ft | 506 kts | 69° |
| 2026-05-05 11:51 | 42.60889 | -65.31768 | 37082 ft | 506 kts | 69° |
| 2026-05-05 11:52 | 42.63027 | -65.22670 | 37104 ft | 506 kts | 69° |
| 2026-05-05 11:52 | 42.65161 | -65.13549 | 37100 ft | 507 kts | 69° |
| 2026-05-05 11:53 | 42.67285 | -65.04434 | 37089 ft | 507 kts | 69° |
| 2026-05-05 11:53 | 42.69412 | -64.95273 | 37094 ft | 507 kts | 70° |
| 2026-05-05 11:54 | 42.71527 | -64.86118 | 37088 ft | 508 kts | 70° |
| 2026-05-05 11:54 | 42.73635 | -64.76962 | 37103 ft | 508 kts | 70° |
| 2026-05-05 11:55 | 42.75742 | -64.67771 | 37103 ft | 509 kts | 70° |
| 2026-05-05 11:55 | 42.77840 | -64.58580 | 37084 ft | 509 kts | 70° |
| 2026-05-05 11:56 | 42.79936 | -64.49358 | 37095 ft | 509 kts | 70° |
| 2026-05-05 11:56 | 42.82036 | -64.40084 | 37113 ft | 510 kts | 70° |
| 2026-05-05 11:57 | 42.84105 | -64.30902 | 37090 ft | 510 kts | 70° |
| 2026-05-05 11:57 | 42.86180 | -64.21657 | 37110 ft | 510 kts | 70° |
| 2026-05-05 11:58 | 42.88250 | -64.12397 | 37092 ft | 511 kts | 70° |
| 2026-05-05 11:58 | 42.90311 | -64.03134 | 37086 ft | 511 kts | 70° |
| 2026-05-05 11:59 | 42.92368 | -63.93851 | 37107 ft | 511 kts | 70° |
| 2026-05-05 11:59 | 42.94419 | -63.84555 | 37099 ft | 512 kts | 70° |
| 2026-05-05 12:00 | 42.96463 | -63.75250 | 37101 ft | 512 kts | 70° |
| 2026-05-05 12:00 | 42.98502 | -63.65928 | 37105 ft | 512 kts | 70° |
| 2026-05-05 12:01 | 43.00533 | -63.56603 | 37105 ft | 512 kts | 70° |
| 2026-05-05 12:01 | 43.02555 | -63.47276 | 37109 ft | 512 kts | 70° |
| 2026-05-05 12:02 | 43.04573 | -63.37928 | 37101 ft | 513 kts | 70° |
| 2026-05-05 12:02 | 43.06583 | -63.28573 | 37100 ft | 513 kts | 70° |
| 2026-05-05 12:03 | 43.08584 | -63.19219 | 37101 ft | 513 kts | 70° |
| 2026-05-05 12:03 | 43.10582 | -63.09837 | 37119 ft | 514 kts | 70° |
| 2026-05-05 12:04 | 43.12574 | -63.00446 | 37106 ft | 514 kts | 71° |
| 2026-05-05 12:04 | 43.14561 | -62.91029 | 37106 ft | 515 kts | 71° |
| 2026-05-05 12:05 | 43.16544 | -62.81594 | 37098 ft | 515 kts | 71° |
| 2026-05-05 12:05 | 43.18517 | -62.72159 | 37109 ft | 515 kts | 71° |
| 2026-05-05 12:06 | 43.20483 | -62.62717 | 37106 ft | 516 kts | 71° |
| 2026-05-05 12:06 | 43.22448 | -62.53237 | 37109 ft | 517 kts | 71° |
| 2026-05-05 12:07 | 43.24405 | -62.43750 | 37112 ft | 517 kts | 71° |
| 2026-05-05 12:07 | 43.26353 | -62.34261 | 37106 ft | 517 kts | 71° |
| 2026-05-05 12:08 | 43.28293 | -62.24766 | 37107 ft | 517 kts | 71° |
| 2026-05-05 12:08 | 43.30227 | -62.15260 | 37108 ft | 517 kts | 71° |
| 2026-05-05 12:09 | 43.31831 | -62.07338 | 37115 ft | 517 kts | 71° |
| 2026-05-05 12:09 | 43.33752 | -61.97815 | 37112 ft | 517 kts | 71° |
| 2026-05-05 12:10 | 43.35674 | -61.88235 | 37115 ft | 517 kts | 71° |
| 2026-05-05 12:10 | 43.37566 | -61.78764 | 37126 ft | 518 kts | 72° |
| 2026-05-05 12:11 | 43.39479 | -61.69140 | 37115 ft | 518 kts | 72° |
| 2026-05-05 12:11 | 43.41370 | -61.59584 | 37117 ft | 518 kts | 72° |
| 2026-05-05 12:12 | 43.43253 | -61.50020 | 37120 ft | 518 kts | 72° |
| 2026-05-05 12:12 | 43.45129 | -61.40443 | 37118 ft | 519 kts | 72° |
| 2026-05-05 12:13 | 43.47003 | -61.30831 | 37122 ft | 519 kts | 72° |
| 2026-05-05 12:13 | 43.48866 | -61.21225 | 37115 ft | 520 kts | 72° |
| 2026-05-05 12:14 | 43.50724 | -61.11600 | 37119 ft | 520 kts | 72° |
| 2026-05-05 12:14 | 43.52573 | -61.01976 | 37130 ft | 521 kts | 72° |
| 2026-05-05 12:15 | 43.54421 | -60.92305 | 37133 ft | 521 kts | 72° |
| 2026-05-05 12:15 | 43.56258 | -60.82645 | 37119 ft | 521 kts | 72° |
| 2026-05-05 12:16 | 43.58090 | -60.72966 | 37100 ft | 522 kts | 73° |
| 2026-05-05 12:16 | 43.59914 | -60.63276 | 37119 ft | 522 kts | 73° |
| 2026-05-05 12:17 | 43.61732 | -60.53568 | 37116 ft | 523 kts | 73° |
| 2026-05-05 12:17 | 43.63543 | -60.43849 | 37115 ft | 524 kts | 73° |
| 2026-05-05 12:18 | 43.65350 | -60.34101 | 37112 ft | 524 kts | 73° |
| 2026-05-05 12:18 | 43.67146 | -60.24361 | 37111 ft | 524 kts | 73° |
| 2026-05-05 12:19 | 43.68940 | -60.14581 | 37107 ft | 524 kts | 73° |
| 2026-05-05 12:19 | 43.70723 | -60.04812 | 37128 ft | 525 kts | 74° |
| 2026-05-05 12:20 | 43.72501 | -59.95018 | 37114 ft | 526 kts | 74° |
| 2026-05-05 12:20 | 43.74272 | -59.85210 | 37112 ft | 526 kts | 74° |
| 2026-05-05 12:21 | 43.76037 | -59.75387 | 37117 ft | 526 kts | 74° |
| 2026-05-05 12:21 | 43.77790 | -59.65576 | 37104 ft | 527 kts | 75° |
| 2026-05-05 12:22 | 43.79539 | -59.55728 | 37129 ft | 528 kts | 75° |
| 2026-05-05 12:22 | 43.81286 | -59.45838 | 37123 ft | 529 kts | 75° |
| 2026-05-05 12:23 | 43.83026 | -59.35939 | 37132 ft | 529 kts | 75° |
| 2026-05-05 12:23 | 43.84757 | -59.26036 | 37128 ft | 530 kts | 75° |
| 2026-05-05 12:24 | 43.86481 | -59.16118 | 37148 ft | 530 kts | 75° |
| 2026-05-05 12:24 | 43.88202 | -59.06163 | 37133 ft | 531 kts | 75° |
| 2026-05-05 12:25 | 43.89914 | -58.96199 | 37131 ft | 531 kts | 76° |
| 2026-05-05 12:25 | 43.91617 | -58.86238 | 37128 ft | 532 kts | 76° |
| 2026-05-05 12:26 | 43.93316 | -58.76240 | 37126 ft | 532 kts | 76° |
| 2026-05-05 12:26 | 43.95007 | -58.66232 | 37146 ft | 533 kts | 76° |
| 2026-05-05 12:27 | 43.96688 | -58.56226 | 37121 ft | 533 kts | 76° |
| 2026-05-05 12:27 | 43.98353 | -58.46258 | 37132 ft | 533 kts | 76° |